LiveATC.Net - Listen to live air traffic control over the Internet! Contact LiveATC.net for advertising information


ICAO: SVVA  IATA: VLN   Airport: Arturo Michelena International Airport
City: Valencia
Country: Venezuela   Continent: South America
SVVA METAR Weather: SVVA 190300Z 36006KT CAVOK 26/20 Q1014
SVVA Flight Activity (FlightAware)
SVVA Gnd/Twr/App
Feed Status: DOWN
Last heard on: 2014-06-18 19:02:04 (183 days 9 hours 39 minutes ago)
SVVA Gnd/Twr/App Audio Archives
FacilityFrequency
Libertador Approach119.800
Valencia Ground121.900
Valencia Tower118.900


NOTICE

Unauthorized use prohibited. See LiveATC.net Terms of Service


Find LiveATC Audio Streams


Airport/ARTCC Code

Frequency
(e.g., 124.400, 128.75)
Site-wide search

Browse LiveATC Feeds
LiveATC Coverage Map
Top 50 LiveATC Feeds
Bad Weather Areas

LiveATC FAQ
Offer a LiveATC Feed
Contact LiveATC.net
Press Inquiries

LiveATC on iPhone
LiveATC on Android

LiveATC Mobile
(Mobile browser)

ATC Audio Archives
Interesting Recordings

LiveATC Forums


Home Page
About LiveATC.net
Make a Donation
LiveATC Bookstore

Terms of Use
Privacy Policy

ATC/Radar Sites
U.S. ARTCC Freqs
Canadian Air Freqs

AIRMETs/SIGMETs

FAA Airport Status
Nat'l Airspace Status
Arrival Demand Charts


Server Software By:
Icecast.org
Liquidsoap

Please make a donation to help us keep growing!